Gujrat Weather



Gujrat's Current Weather

Temprature 7.89o clear sky

clear sky

Rain: 0 %

Min Temprature7.89o
Max Temprature7.89o
Humidity73
Wind Speed1.04 m/h
Sun Rise07:04:56
Sun Set17:22:47
Current Time: 18-Jan-2021 05:55:59
Lat/Lon: 32.5728, 74.079




Gujrat's Geo Location



Gujrat's Weather Forecast

Time Overall Temp Min Temp Max Temp Humidity Wind Speed Rain
18-Jan-2021 (Mon)
08:00:00 clear sky 8.770 8.770 9.280 69 0.9 m/h 0 %
11:00:00 clear sky 14.870 14.870 16.680 48 1.58 m/h 0 %
14:00:00 clear sky 19.010 19.010 19.740 33 1.42 m/h 0 %
17:00:00 clear sky 15.750 15.750 15.810 42 0.5 m/h 0 %
20:00:00 clear sky 12.540 12.540 12.540 46 1.39 m/h 0 %
23:00:00 clear sky 11.260 11.260 11.260 52 1.66 m/h 0 %
19-Jan-2021 (Tue)
02:00:00 clear sky 10.260 10.260 10.260 57 2.1 m/h 0 %
05:00:00 clear sky 9.340 9.340 9.340 57 2.01 m/h 0 %
08:00:00 clear sky 10.020 10.020 10.020 57 1.48 m/h 0 %
11:00:00 clear sky 17.650 17.650 17.650 36 2.59 m/h 0 %
14:00:00 clear sky 21.000 21.000 21.000 28 2.88 m/h 0 %
17:00:00 clear sky 17.200 17.200 17.200 39 2.01 m/h 0 %
20:00:00 clear sky 13.280 13.280 13.280 42 2.26 m/h 0 %
23:00:00 clear sky 11.520 11.520 11.520 43 2.14 m/h 0 %
20-Jan-2021 (Wed)
02:00:00 clear sky 10.100 10.100 10.100 46 2.15 m/h 0 %
05:00:00 clear sky 9.060 9.060 9.060 50 1.86 m/h 0 %
08:00:00 clear sky 9.930 9.930 9.930 48 1.85 m/h 0 %
11:00:00 clear sky 17.820 17.820 17.820 29 2.53 m/h 0 %
14:00:00 clear sky 21.810 21.810 21.810 23 3.61 m/h 0 %
17:00:00 clear sky 17.630 17.630 17.630 32 2.8 m/h 0 %
20:00:00 clear sky 13.090 13.090 13.090 38 3.08 m/h 0 %
23:00:00 clear sky 11.090 11.090 11.090 42 2.43 m/h 0 %
21-Jan-2021 (Thu)
02:00:00 scattered clouds 9.770 9.770 9.770 46 2.15 m/h 0 %
05:00:00 few clouds 8.830 8.830 8.830 50 1.72 m/h 0 %
08:00:00 clear sky 9.790 9.790 9.790 48 0.75 m/h 0 %
11:00:00 clear sky 17.570 17.570 17.570 29 2 m/h 0 %
14:00:00 few clouds 21.180 21.180 21.180 23 2.42 m/h 0 %
17:00:00 broken clouds 16.640 16.640 16.640 31 0.94 m/h 0 %
20:00:00 broken clouds 13.100 13.100 13.100 37 0.18 m/h 0 %
23:00:00 broken clouds 12.060 12.060 12.060 40 2.14 m/h 0 %
22-Jan-2021 (Fri)
02:00:00 broken clouds 10.670 10.670 10.670 45 1.98 m/h 0 %
05:00:00 scattered clouds 9.560 9.560 9.560 49 2.42 m/h 0 %
08:00:00 overcast clouds 10.270 10.270 10.270 48 2.18 m/h 0 %
11:00:00 overcast clouds 17.420 17.420 17.420 32 2.38 m/h 0 %
14:00:00 overcast clouds 21.370 21.370 21.370 25 2.66 m/h 0 %
17:00:00 overcast clouds 17.610 17.610 17.610 37 2.31 m/h 0 %
20:00:00 clear sky 13.760 13.760 13.760 42 3.64 m/h 0 %
23:00:00 clear sky 12.250 12.250 12.250 46 3.79 m/h 0 %
23-Jan-2021 (Sat)
02:00:00 clear sky 11.120 11.120 11.120 48 3.32 m/h 0 %
05:00:00 clear sky 9.710 9.710 9.710 51 2.37 m/h 0 %

Famous Cities (60)